Time;durP1;ratioP1;P1;durP2;ratioP2;P2;SDS_P1;SDS_P2;PMS_P1;PMS_P2;Temp;Humidity;BMP_temperature;BMP_pressure;BME280_temperature;BME280_humidity;BME280_pressure;Samples;Min_cycle;Max_cycle;Signal;HPM_P1;HPM_P2
2021/12/11 00:01:10;;;;;;;12.27;8.48;;;;;;;;;;4999283;28;20041;-87
2021/12/11 00:03:40;;;;;;;16.95;8.15;;;;;;;;;;5016539;28;20036;-85
2021/12/11 00:06:14;;;;;;;14.80;8.75;;;;;;;;;;4993664;28;20481;-85
2021/12/11 00:08:41;;;;;;;13.73;8.75;;;;;;;;;;5012581;28;20136;-87
2021/12/11 00:11:32;;;;;;;16.52;9.25;;;;;;;;;;4994966;28;20037;-86
2021/12/11 00:14:00;;;;;;;17.73;9.02;;;;;;;;;;5006374;28;20116;-87
2021/12/11 00:16:29;;;;;;;16.50;9.07;;;;;;;;;;4997773;28;20493;-87
2021/12/11 00:19:02;;;;;;;13.25;8.68;;;;;;;;;;4994561;28;20021;-87
2021/12/11 00:21:30;;;;;;;16.05;8.82;;;;;;;;;;5013056;28;20492;-87
2021/12/11 00:24:07;;;;;;;15.32;9.15;;;;;;;;;;4995867;28;20041;-85
2021/12/11 00:26:36;;;;;;;15.02;9.40;;;;;;;;;;4995004;28;20037;-84
2021/12/11 00:29:03;;;;;;;21.13;9.63;;;;;;;;;;4992913;28;20027;-87
2021/12/11 00:31:31;;;;;;;15.30;9.63;;;;;;;;;;4996793;28;20064;-86
2021/12/11 00:33:57;;;;;;;15.18;9.05;;;;;;;;;;4999268;28;20551;-87
2021/12/11 00:36:31;;;;;;;15.38;9.98;;;;;;;;;;4996382;28;20398;-87
2021/12/11 00:39:12;;;;;;;17.88;10.15;;;;;;;;;;4991359;28;20146;-87
2021/12/11 00:41:39;;;;;;;18.48;10.75;;;;;;;;;;4994520;28;20518;-85
2021/12/11 00:44:04;;;;;;;18.77;10.27;;;;;;;;;;5008763;28;20025;-84
2021/12/11 00:46:33;;;;;;;19.45;11.32;;;;;;;;;;5013372;28;20033;-86
2021/12/11 00:49:16;;;;;;;17.80;10.50;;;;;;;;;;4996306;28;20097;-88
2021/12/11 00:51:49;;;;;;;19.33;10.90;;;;;;;;;;4996201;28;20047;-85
2021/12/11 00:54:15;;;;;;;17.75;10.63;;;;;;;;;;4995602;28;20541;-86
2021/12/11 00:56:41;;;;;;;20.70;10.93;;;;;;;;;;4995480;28;20036;-87
2021/12/11 00:59:10;;;;;;;21.05;10.63;;;;;;;;;;4988659;28;20021;-86
2021/12/11 01:01:43;;;;;;;21.83;11.48;;;;;;;;;;4995152;28;20076;-86
2021/12/11 01:04:14;;;;;;;19.15;11.40;;;;;;;;;;4995853;28;20026;-87
2021/12/11 01:06:52;;;;;;;19.60;11.27;;;;;;;;;;4996523;28;20060;-85
2021/12/11 01:09:27;;;;;;;22.35;12.30;;;;;;;;;;5017199;28;20049;-87
2021/12/11 01:12:13;;;;;;;19.92;12.15;;;;;;;;;;4995112;28;20025;-87
2021/12/11 01:14:50;;;;;;;20.75;11.80;;;;;;;;;;5006406;28;22299;-87
2021/12/11 01:17:44;;;;;;;20.77;11.30;;;;;;;;;;4995707;28;20037;-87
2021/12/11 01:20:22;;;;;;;22.92;11.52;;;;;;;;;;4997782;28;20506;-85
2021/12/11 01:22:49;;;;;;;22.90;12.15;;;;;;;;;;5011612;28;20113;-86
2021/12/11 01:25:25;;;;;;;22.05;12.60;;;;;;;;;;4997285;28;20038;-86
2021/12/11 01:27:53;;;;;;;23.00;12.35;;;;;;;;;;5001444;28;20025;-88
2021/12/11 01:30:30;;;;;;;20.00;10.98;;;;;;;;;;5009264;28;20040;-86
2021/12/11 01:32:56;;;;;;;24.05;12.77;;;;;;;;;;4996461;28;20026;-86
2021/12/11 01:35:23;;;;;;;26.33;12.82;;;;;;;;;;4990564;28;20034;-86
2021/12/11 01:37:58;;;;;;;21.15;12.50;;;;;;;;;;5007604;28;20037;-85
2021/12/11 01:40:27;;;;;;;22.60;11.85;;;;;;;;;;5010669;28;20014;-86
2021/12/11 01:42:53;;;;;;;21.33;12.38;;;;;;;;;;4995405;28;20032;-86
2021/12/11 01:45:19;;;;;;;26.88;13.00;;;;;;;;;;4996542;28;20029;-86
2021/12/11 01:47:48;;;;;;;26.00;13.40;;;;;;;;;;4995773;28;20057;-84
2021/12/11 01:50:33;;;;;;;27.15;13.25;;;;;;;;;;4994792;28;20482;-86
2021/12/11 01:53:10;;;;;;;25.27;13.43;;;;;;;;;;4991154;28;20057;-86
2021/12/11 01:55:46;;;;;;;23.50;12.82;;;;;;;;;;4997095;28;20033;-86
2021/12/11 01:58:15;;;;;;;20.95;12.15;;;;;;;;;;4996058;28;20144;-86
2021/12/11 02:00:50;;;;;;;22.58;13.18;;;;;;;;;;5003121;28;20080;-87
2021/12/11 02:03:21;;;;;;;19.40;11.55;;;;;;;;;;4994603;28;20030;-86
2021/12/11 02:05:47;;;;;;;17.40;11.88;;;;;;;;;;4992379;28;20395;-84
2021/12/11 02:08:16;;;;;;;17.83;11.65;;;;;;;;;;5017018;28;20032;-86
2021/12/11 02:11:01;;;;;;;16.17;10.52;;;;;;;;;;5010521;28;20176;-87
2021/12/11 02:13:42;;;;;;;19.08;11.85;;;;;;;;;;4995265;28;20469;-86
2021/12/11 02:16:25;;;;;;;18.35;11.45;;;;;;;;;;5012038;28;20018;-86
2021/12/11 02:18:54;;;;;;;18.65;11.00;;;;;;;;;;4994750;28;20030;-87
2021/12/11 02:21:28;;;;;;;19.70;12.50;;;;;;;;;;4994079;28;20490;-86
2021/12/11 02:24:02;;;;;;;18.08;11.38;;;;;;;;;;5013869;28;20377;-87
2021/12/11 02:26:30;;;;;;;16.75;11.45;;;;;;;;;;5009161;28;20072;-86
2021/12/11 02:29:28;;;;;;;20.00;11.60;;;;;;;;;;4994601;28;20478;-85
2021/12/11 02:32:02;;;;;;;18.38;10.32;;;;;;;;;;4996266;28;20041;-85
2021/12/11 02:34:34;;;;;;;17.75;11.25;;;;;;;;;;4993032;28;20036;-85
2021/12/11 02:37:17;;;;;;;17.27;10.93;;;;;;;;;;5001221;28;20123;-86
2021/12/11 02:39:59;;;;;;;16.98;10.40;;;;;;;;;;5003035;28;20774;-85
2021/12/11 02:42:36;;;;;;;17.58;10.60;;;;;;;;;;5005662;28;20445;-86
2021/12/11 02:45:18;;;;;;;18.17;10.95;;;;;;;;;;5008816;28;20424;-84
2021/12/11 02:47:54;;;;;;;16.42;9.55;;;;;;;;;;4995030;28;20036;-86
2021/12/11 02:50:30;;;;;;;16.27;10.13;;;;;;;;;;5008664;28;20048;-86
2021/12/11 02:53:04;;;;;;;17.27;10.00;;;;;;;;;;5002454;28;20504;-86
2021/12/11 02:55:49;;;;;;;15.75;9.63;;;;;;;;;;5012396;28;20030;-86
2021/12/11 02:58:19;;;;;;;16.73;10.07;;;;;;;;;;4996509;28;20058;-85
2021/12/11 03:01:09;;;;;;;17.25;10.40;;;;;;;;;;5014790;28;20029;-86
2021/12/11 03:03:41;;;;;;;15.55;9.50;;;;;;;;;;5000675;28;20032;-86
2021/12/11 03:06:21;;;;;;;19.38;10.65;;;;;;;;;;5012444;28;20026;-86
2021/12/11 03:08:49;;;;;;;16.10;10.00;;;;;;;;;;5013777;28;20525;-86
2021/12/11 03:11:17;;;;;;;18.65;10.90;;;;;;;;;;5014998;28;20092;-86
2021/12/11 03:13:50;;;;;;;15.27;10.25;;;;;;;;;;5013453;28;20485;-86
2021/12/11 03:16:20;;;;;;;18.27;10.68;;;;;;;;;;5014668;28;20037;-84
2021/12/11 03:18:46;;;;;;;16.80;10.10;;;;;;;;;;5015708;28;20477;-86
2021/12/11 03:21:12;;;;;;;15.02;9.50;;;;;;;;;;5011553;28;20026;-86
2021/12/11 03:23:37;;;;;;;19.08;10.95;;;;;;;;;;5003364;28;20532;-85
2021/12/11 03:26:03;;;;;;;17.08;10.45;;;;;;;;;;5012176;28;20181;-86
2021/12/11 03:28:28;;;;;;;18.15;11.60;;;;;;;;;;5002199;28;20405;-86
2021/12/11 03:30:58;;;;;;;20.15;11.38;;;;;;;;;;4998357;28;20080;-85
2021/12/11 03:33:31;;;;;;;18.90;10.45;;;;;;;;;;5013450;28;20374;-86
2021/12/11 03:35:57;;;;;;;18.80;11.75;;;;;;;;;;5000634;28;20041;-86
2021/12/11 03:38:25;;;;;;;19.38;11.52;;;;;;;;;;5001715;28;20037;-86
2021/12/11 03:40:51;;;;;;;18.60;11.15;;;;;;;;;;5003869;28;20582;-86
2021/12/11 03:43:20;;;;;;;20.05;12.40;;;;;;;;;;5001673;28;20029;-86
2021/12/11 03:45:48;;;;;;;21.02;11.82;;;;;;;;;;5014495;28;20105;-86
2021/12/11 03:48:20;;;;;;;21.98;12.25;;;;;;;;;;5003671;28;20080;-85
2021/12/11 03:50:46;;;;;;;24.03;12.57;;;;;;;;;;4997122;28;20037;-86
2021/12/11 03:53:12;;;;;;;22.58;12.93;;;;;;;;;;5015270;28;20441;-84
2021/12/11 03:56:07;;;;;;;19.83;12.18;;;;;;;;;;4996369;28;20029;-86
2021/12/11 03:58:34;;;;;;;21.00;12.23;;;;;;;;;;5011180;28;20040;-86
2021/12/11 04:01:12;;;;;;;22.88;13.32;;;;;;;;;;5001190;28;20030;-86
2021/12/11 04:03:40;;;;;;;20.77;11.57;;;;;;;;;;5013039;28;20037;-85
2021/12/11 04:06:09;;;;;;;21.38;12.57;;;;;;;;;;5010924;28;20033;-85
2021/12/11 04:08:42;;;;;;;23.88;12.60;;;;;;;;;;5017546;28;20124;-86
2021/12/11 04:11:15;;;;;;;21.63;12.20;;;;;;;;;;4995084;28;20041;-86
2021/12/11 04:13:41;;;;;;;24.42;13.15;;;;;;;;;;4990538;28;20033;-87
2021/12/11 04:16:08;;;;;;;23.90;13.93;;;;;;;;;;4998382;28;20033;-86
2021/12/11 04:18:34;;;;;;;21.63;12.18;;;;;;;;;;5001754;28;20025;-85
2021/12/11 04:21:00;;;;;;;22.30;12.63;;;;;;;;;;5012924;28;20030;-86
2021/12/11 04:23:25;;;;;;;22.23;12.80;;;;;;;;;;5001994;28;20394;-86
2021/12/11 04:25:53;;;;;;;26.35;14.43;;;;;;;;;;5002904;28;20152;-86
2021/12/11 04:28:20;;;;;;;27.13;13.65;;;;;;;;;;5011764;28;20022;-86
2021/12/11 04:30:49;;;;;;;20.02;11.88;;;;;;;;;;4998414;28;20033;-86
2021/12/11 04:33:15;;;;;;;24.17;12.25;;;;;;;;;;5012442;28;20080;-87
2021/12/11 04:35:43;;;;;;;22.80;13.13;;;;;;;;;;5013284;28;20445;-86
2021/12/11 04:38:11;;;;;;;26.13;13.05;;;;;;;;;;5014331;28;20029;-86
2021/12/11 04:40:39;;;;;;;24.65;13.70;;;;;;;;;;4995193;28;20568;-84
2021/12/11 04:43:12;;;;;;;23.23;12.88;;;;;;;;;;4999021;28;20034;-86
2021/12/11 04:45:54;;;;;;;23.73;13.02;;;;;;;;;;4993629;28;20022;-86
2021/12/11 04:48:44;;;;;;;25.17;13.37;;;;;;;;;;5011588;28;20432;-84
2021/12/11 04:51:20;;;;;;;24.60;13.65;;;;;;;;;;5012966;28;20033;-86
2021/12/11 04:54:26;;;;;;;24.65;12.50;;;;;;;;;;5002510;28;20057;-86
2021/12/11 05:04:46;;;;;;;22.80;12.43;;;;;;;;;;5010160;28;20035;-86
2021/12/11 05:10:12;;;;;;;23.05;12.80;;;;;;;;;;5012576;28;20042;-87
2021/12/11 05:12:38;;;;;;;22.48;12.63;;;;;;;;;;5019647;28;20053;-84
2021/12/11 05:15:06;;;;;;;26.83;14.05;;;;;;;;;;5000437;28;20085;-86
2021/12/11 05:17:32;;;;;;;23.83;13.43;;;;;;;;;;5012698;28;20113;-86
2021/12/11 05:19:57;;;;;;;23.15;13.27;;;;;;;;;;5013361;28;20057;-88
2021/12/11 05:22:23;;;;;;;22.92;13.52;;;;;;;;;;5003070;28;20033;-86
2021/12/11 05:24:55;;;;;;;20.75;12.23;;;;;;;;;;5012366;28;20041;-86
2021/12/11 05:27:21;;;;;;;22.83;13.27;;;;;;;;;;4995748;28;20409;-85
2021/12/11 05:29:47;;;;;;;22.25;12.57;;;;;;;;;;4996834;28;20022;-86
2021/12/11 05:32:17;;;;;;;25.15;12.82;;;;;;;;;;4998002;28;20114;-86
2021/12/11 05:34:42;;;;;;;26.00;14.27;;;;;;;;;;5000138;28;20544;-85
2021/12/11 05:37:09;;;;;;;23.88;13.55;;;;;;;;;;4995419;28;20025;-86
2021/12/11 05:39:35;;;;;;;26.15;14.43;;;;;;;;;;4995981;28;20026;-86
2021/12/11 05:42:00;;;;;;;23.48;12.98;;;;;;;;;;5001471;28;20036;-85
2021/12/11 05:44:27;;;;;;;24.20;14.10;;;;;;;;;;4988064;28;20545;-85
2021/12/11 05:46:53;;;;;;;24.85;13.82;;;;;;;;;;5011335;28;20037;-85
2021/12/11 05:49:19;;;;;;;25.83;14.25;;;;;;;;;;4997857;28;20041;-85
2021/12/11 05:51:47;;;;;;;23.17;13.63;;;;;;;;;;4996116;28;20029;-86
2021/12/11 05:54:21;;;;;;;24.05;13.57;;;;;;;;;;4994541;28;20056;-85
2021/12/11 05:56:47;;;;;;;27.17;14.20;;;;;;;;;;5000094;28;20037;-86
2021/12/11 05:59:16;;;;;;;22.70;13.07;;;;;;;;;;5001508;28;21931;-88
2021/12/11 06:01:43;;;;;;;24.55;14.13;;;;;;;;;;5006882;28;20029;-84
2021/12/11 06:04:19;;;;;;;23.25;13.68;;;;;;;;;;5007935;28;20496;-85
2021/12/11 06:06:46;;;;;;;22.60;12.52;;;;;;;;;;4998066;28;20033;-88
2021/12/11 06:09:14;;;;;;;24.52;14.48;;;;;;;;;;4990164;28;20093;-85
2021/12/11 06:11:43;;;;;;;23.80;13.50;;;;;;;;;;4996437;28;20030;-88
2021/12/11 06:14:09;;;;;;;25.17;14.15;;;;;;;;;;5000300;28;20030;-86
2021/12/11 06:16:34;;;;;;;27.00;14.60;;;;;;;;;;4994765;28;20535;-84
2021/12/11 06:19:04;;;;;;;25.98;14.75;;;;;;;;;;4997217;28;20613;-86
2021/12/11 06:21:32;;;;;;;22.40;12.25;;;;;;;;;;4995040;28;20107;-84
2021/12/11 06:23:57;;;;;;;24.17;14.05;;;;;;;;;;5009826;28;20033;-85
2021/12/11 06:26:23;;;;;;;21.08;12.70;;;;;;;;;;4995660;28;20037;-84
2021/12/11 06:28:49;;;;;;;23.55;13.57;;;;;;;;;;5003885;28;20030;-84
2021/12/11 06:31:18;;;;;;;23.52;13.45;;;;;;;;;;5014778;28;20061;-85
2021/12/11 06:33:47;;;;;;;23.17;13.65;;;;;;;;;;5013596;28;20026;-88
2021/12/11 06:36:14;;;;;;;23.13;13.68;;;;;;;;;;4996526;28;20064;-84
2021/12/11 06:38:43;;;;;;;21.73;12.80;;;;;;;;;;4998915;28;20450;-86
2021/12/11 06:41:11;;;;;;;22.00;13.32;;;;;;;;;;5007750;28;20092;-88
2021/12/11 06:43:37;;;;;;;25.10;14.18;;;;;;;;;;5016018;28;20030;-87
2021/12/11 06:46:03;;;;;;;24.73;14.07;;;;;;;;;;5018582;28;20116;-86
2021/12/11 06:48:29;;;;;;;25.48;14.35;;;;;;;;;;5003640;28;20374;-86
2021/12/11 06:50:55;;;;;;;22.17;13.32;;;;;;;;;;5010644;28;20032;-83
2021/12/11 06:53:33;;;;;;;23.60;13.15;;;;;;;;;;5006371;28;20022;-86
2021/12/11 06:55:59;;;;;;;22.25;13.05;;;;;;;;;;5001963;28;20038;-85
2021/12/11 06:58:25;;;;;;;22.63;13.18;;;;;;;;;;4998954;28;20034;-86
2021/12/11 07:00:50;;;;;;;22.98;13.85;;;;;;;;;;4998855;28;20029;-88
2021/12/11 07:03:16;;;;;;;22.13;13.32;;;;;;;;;;4999668;28;20038;-88
2021/12/11 07:05:41;;;;;;;23.48;14.13;;;;;;;;;;4998369;28;20441;-83
2021/12/11 07:08:08;;;;;;;22.92;13.43;;;;;;;;;;4997056;28;20026;-85
2021/12/11 07:10:33;;;;;;;24.63;13.45;;;;;;;;;;4998479;28;20041;-85
2021/12/11 07:13:00;;;;;;;22.95;14.23;;;;;;;;;;4993288;28;20038;-84
2021/12/11 07:15:26;;;;;;;23.42;14.38;;;;;;;;;;4997273;28;20049;-87
2021/12/11 07:17:51;;;;;;;21.35;13.23;;;;;;;;;;5018169;28;20500;-83
2021/12/11 07:20:17;;;;;;;24.02;14.00;;;;;;;;;;5000927;28;20022;-84
2021/12/11 07:22:42;;;;;;;22.83;13.43;;;;;;;;;;5011091;28;20034;-85
2021/12/11 07:25:26;;;;;;;21.98;14.13;;;;;;;;;;5006241;28;20026;-86
2021/12/11 07:27:55;;;;;;;23.33;13.68;;;;;;;;;;5001695;28;20040;-85
2021/12/11 07:30:21;;;;;;;22.05;13.13;;;;;;;;;;5010976;28;20042;-85
2021/12/11 07:32:47;;;;;;;22.73;13.82;;;;;;;;;;5013437;28;20037;-84
2021/12/11 07:35:12;;;;;;;21.52;12.75;;;;;;;;;;5001317;28;20033;-85
2021/12/11 07:37:38;;;;;;;24.88;13.30;;;;;;;;;;4992557;28;20455;-88
2021/12/11 07:40:08;;;;;;;22.40;13.30;;;;;;;;;;5013397;28;20029;-85
2021/12/11 07:42:33;;;;;;;20.70;13.15;;;;;;;;;;4989808;28;20121;-85
2021/12/11 07:44:58;;;;;;;21.20;12.68;;;;;;;;;;4993292;28;20137;-88
2021/12/11 07:47:24;;;;;;;19.17;12.73;;;;;;;;;;4998300;28;20120;-88
2021/12/11 07:49:49;;;;;;;20.17;12.50;;;;;;;;;;4989947;28;20032;-88
2021/12/11 07:52:15;;;;;;;20.75;12.85;;;;;;;;;;4993925;28;20144;-88
2021/12/11 07:54:40;;;;;;;17.83;11.20;;;;;;;;;;4991722;28;20026;-85
2021/12/11 07:57:06;;;;;;;19.90;11.52;;;;;;;;;;4997055;28;20026;-84
2021/12/11 07:59:31;;;;;;;23.13;14.00;;;;;;;;;;4995067;28;20080;-86
2021/12/11 08:01:56;;;;;;;19.83;11.50;;;;;;;;;;4997535;28;20037;-85
2021/12/11 08:04:23;;;;;;;17.15;9.73;;;;;;;;;;5013042;28;20159;-88
2021/12/11 08:06:49;;;;;;;13.82;8.50;;;;;;;;;;4996303;28;20116;-86
2021/12/11 08:09:18;;;;;;;14.10;8.30;;;;;;;;;;4994624;28;20156;-83
2021/12/11 08:11:44;;;;;;;11.77;6.53;;;;;;;;;;5004360;28;20034;-84
2021/12/11 08:14:11;;;;;;;14.23;6.20;;;;;;;;;;5013970;28;20072;-85
2021/12/11 08:16:49;;;;;;;18.85;7.40;;;;;;;;;;4994609;28;20528;-88
2021/12/11 08:19:34;;;;;;;11.63;6.15;;;;;;;;;;4995754;28;20030;-86
2021/12/11 08:22:07;;;;;;;13.48;6.50;;;;;;;;;;5009975;28;20517;-84
2021/12/11 08:24:34;;;;;;;14.55;6.40;;;;;;;;;;5013952;28;20113;-85
2021/12/11 08:27:06;;;;;;;14.20;6.80;;;;;;;;;;4996119;28;20029;-85
2021/12/11 08:29:32;;;;;;;15.68;6.28;;;;;;;;;;5001744;28;20575;-84
2021/12/11 08:31:59;;;;;;;15.52;7.18;;;;;;;;;;4989996;28;20253;-85
2021/12/11 08:34:26;;;;;;;15.35;6.60;;;;;;;;;;4994008;28;20874;-86
2021/12/11 08:36:51;;;;;;;15.35;6.95;;;;;;;;;;4995333;28;20481;-87
2021/12/11 08:39:21;;;;;;;12.73;7.55;;;;;;;;;;5011055;28;20044;-85
2021/12/11 08:41:50;;;;;;;14.25;7.75;;;;;;;;;;4995994;28;20128;-83
2021/12/11 08:44:17;;;;;;;14.52;7.53;;;;;;;;;;4996324;28;20034;-88
2021/12/11 08:46:48;;;;;;;18.25;8.15;;;;;;;;;;4994573;28;20374;-85
2021/12/11 08:49:18;;;;;;;15.32;7.72;;;;;;;;;;4995745;28;20486;-85
2021/12/11 08:51:48;;;;;;;16.33;8.70;;;;;;;;;;5001331;28;20030;-88
2021/12/11 08:54:15;;;;;;;17.83;8.60;;;;;;;;;;4999171;28;20033;-84
2021/12/11 08:56:41;;;;;;;19.05;9.68;;;;;;;;;;5010087;28;20041;-84
2021/12/11 08:59:12;;;;;;;18.95;10.40;;;;;;;;;;5012830;28;20065;-86
2021/12/11 09:01:43;;;;;;;20.27;10.00;;;;;;;;;;4996162;28;20022;-88
2021/12/11 09:04:19;;;;;;;20.27;11.68;;;;;;;;;;4992177;28;20048;-86
2021/12/11 09:06:54;;;;;;;22.27;12.00;;;;;;;;;;4995470;28;20054;-86
2021/12/11 09:09:28;;;;;;;22.52;12.25;;;;;;;;;;4994254;28;20545;-86
2021/12/11 09:12:04;;;;;;;21.98;13.05;;;;;;;;;;5006253;28;20029;-83
2021/12/11 09:15:00;;;;;;;24.27;13.25;;;;;;;;;;4996050;28;20057;-84
2021/12/11 09:17:34;;;;;;;23.33;14.27;;;;;;;;;;4995041;28;20384;-86
2021/12/11 09:20:09;;;;;;;24.05;14.07;;;;;;;;;;4994338;28;20024;-86
2021/12/11 09:23:01;;;;;;;24.25;13.57;;;;;;;;;;5009830;28;20121;-85
2021/12/11 09:26:09;;;;;;;22.17;13.25;;;;;;;;;;5009526;28;20554;-83
2021/12/11 09:28:43;;;;;;;26.75;14.52;;;;;;;;;;4989279;28;20042;-84
2021/12/11 09:31:27;;;;;;;26.08;14.05;;;;;;;;;;5013562;28;20543;-84
2021/12/11 09:33:58;;;;;;;26.17;15.07;;;;;;;;;;4996057;28;20393;-84
2021/12/11 09:36:37;;;;;;;23.30;14.02;;;;;;;;;;5000649;28;20034;-84
2021/12/11 09:39:17;;;;;;;28.42;14.02;;;;;;;;;;4995845;28;20026;-89
2021/12/11 09:41:44;;;;;;;26.83;13.85;;;;;;;;;;4987115;28;20040;-84
2021/12/11 09:44:15;;;;;;;29.00;15.88;;;;;;;;;;5009517;28;20045;-88
2021/12/11 09:46:50;;;;;;;28.80;15.95;;;;;;;;;;4989835;28;20137;-85
2021/12/11 09:49:20;;;;;;;29.25;15.60;;;;;;;;;;5007682;28;20796;-84
2021/12/11 09:51:48;;;;;;;29.85;14.60;;;;;;;;;;5002107;28;20046;-87
2021/12/11 09:54:20;;;;;;;25.35;14.38;;;;;;;;;;4989092;28;20041;-86
2021/12/11 09:56:59;;;;;;;26.25;15.25;;;;;;;;;;4993770;28;20037;-84
2021/12/11 09:59:29;;;;;;;26.52;15.23;;;;;;;;;;5005661;28;20056;-84
2021/12/11 10:01:59;;;;;;;28.75;15.95;;;;;;;;;;4991402;28;20500;-85
2021/12/11 10:04:32;;;;;;;28.80;14.88;;;;;;;;;;4991342;28;20761;-85
2021/12/11 10:09:47;;;;;;;25.00;14.10;;;;;;;;;;5008073;28;20056;-84
2021/12/11 10:12:18;;;;;;;25.02;14.55;;;;;;;;;;4973040;28;20478;-84
2021/12/11 10:14:49;;;;;;;25.10;14.52;;;;;;;;;;4991127;28;20876;-86
2021/12/11 10:17:20;;;;;;;26.48;13.90;;;;;;;;;;4989290;28;20033;-86
2021/12/11 10:19:47;;;;;;;24.38;13.45;;;;;;;;;;4991979;28;20037;-86
2021/12/11 10:22:31;;;;;;;27.48;14.65;;;;;;;;;;4989499;28;20084;-86
2021/12/11 10:24:57;;;;;;;27.58;14.25;;;;;;;;;;5006214;28;20635;-85
2021/12/11 10:27:28;;;;;;;27.05;14.63;;;;;;;;;;4991052;28;20931;-88
2021/12/11 10:29:57;;;;;;;27.30;15.38;;;;;;;;;;4990433;28;20104;-85
2021/12/11 10:32:27;;;;;;;23.85;13.15;;;;;;;;;;5008854;28;20496;-86
2021/12/11 10:34:58;;;;;;;23.15;13.07;;;;;;;;;;5008501;28;20034;-84
2021/12/11 10:37:30;;;;;;;25.13;13.90;;;;;;;;;;4988872;28;20032;-83
2021/12/11 10:39:59;;;;;;;27.92;14.45;;;;;;;;;;5003758;28;20022;-85
2021/12/11 10:42:25;;;;;;;25.65;13.80;;;;;;;;;;4988348;28;20116;-85
2021/12/11 10:44:54;;;;;;;27.40;14.85;;;;;;;;;;4994695;28;20805;-86
2021/12/11 10:51:44;;;;;;;;;;;;;;;;;;;;;
2021/12/11 10:56:48;;;;;;;24.63;12.55;;;;;;;;;;4899818;29;20075;-89
2021/12/11 10:59:27;;;;;;;24.38;13.35;;;;;;;;;;4893227;29;20125;-88
2021/12/11 11:02:00;;;;;;;24.60;13.52;;;;;;;;;;4982744;28;20559;-88
2021/12/11 11:04:35;;;;;;;22.73;12.88;;;;;;;;;;4988610;28;20042;-85
2021/12/11 11:07:01;;;;;;;23.83;13.43;;;;;;;;;;4996426;28;20434;-89
2021/12/11 11:09:28;;;;;;;24.40;13.32;;;;;;;;;;4986073;28;20046;-86
2021/12/11 11:12:01;;;;;;;24.92;13.60;;;;;;;;;;4991695;28;20089;-84
2021/12/11 11:14:29;;;;;;;21.23;13.20;;;;;;;;;;4994983;28;20050;-84
2021/12/11 11:17:00;;;;;;;23.20;13.10;;;;;;;;;;4995405;28;20417;-88
2021/12/11 11:19:29;;;;;;;23.95;13.70;;;;;;;;;;4994850;28;20117;-84
2021/12/11 11:21:59;;;;;;;25.67;14.45;;;;;;;;;;4998946;28;20589;-85
2021/12/11 11:24:36;;;;;;;28.80;15.48;;;;;;;;;;5002416;28;20057;-88
2021/12/11 11:27:21;;;;;;;29.13;15.48;;;;;;;;;;5012190;28;20034;-85
2021/12/11 11:29:50;;;;;;;29.98;15.57;;;;;;;;;;5001706;28;20043;-84
2021/12/11 11:32:20;;;;;;;33.78;16.75;;;;;;;;;;5000045;28;20084;-89
2021/12/11 11:34:54;;;;;;;28.65;15.68;;;;;;;;;;4991663;28;20394;-86
2021/12/11 11:37:24;;;;;;;28.55;15.30;;;;;;;;;;5004622;28;20030;-88
2021/12/11 11:39:54;;;;;;;30.30;16.15;;;;;;;;;;5002369;28;20485;-85
2021/12/11 11:42:23;;;;;;;30.65;17.25;;;;;;;;;;4986377;28;20021;-85
2021/12/11 11:44:58;;;;;;;32.17;16.95;;;;;;;;;;4989766;28;20518;-85
2021/12/11 11:47:24;;;;;;;32.22;17.50;;;;;;;;;;4992113;28;20105;-88
2021/12/11 11:49:58;;;;;;;26.33;16.00;;;;;;;;;;4996392;28;20861;-88
2021/12/11 11:52:27;;;;;;;28.67;16.58;;;;;;;;;;4991529;28;20085;-85
2021/12/11 11:54:56;;;;;;;31.05;17.52;;;;;;;;;;4990624;28;20042;-85
2021/12/11 11:57:38;;;;;;;31.35;17.55;;;;;;;;;;4994945;28;20073;-88
2021/12/11 12:00:28;;;;;;;35.50;19.45;;;;;;;;;;4996283;28;20029;-85
2021/12/11 12:02:57;;;;;;;43.58;21.63;;;;;;;;;;4990195;28;20495;-88
2021/12/11 12:05:31;;;;;;;39.33;19.75;;;;;;;;;;5008175;28;20080;-85
2021/12/11 12:07:57;;;;;;;30.85;17.10;;;;;;;;;;4996521;28;20023;-84
2021/12/11 12:10:27;;;;;;;29.30;15.75;;;;;;;;;;4993614;28;20038;-84
2021/12/11 12:13:07;;;;;;;30.15;15.65;;;;;;;;;;5000233;28;20444;-84
2021/12/11 12:16:00;;;;;;;25.15;14.05;;;;;;;;;;4990228;28;20032;-84
2021/12/11 12:18:27;;;;;;;;;;;;;;;;;;4998602;28;20038;-84
2021/12/11 12:20:59;;;;;;;27.83;13.77;;;;;;;;;;5008897;28;19917;-85
2021/12/11 12:23:35;;;;;;;28.98;15.32;;;;;;;;;;4996542;28;20802;-84
2021/12/11 12:26:30;;;;;;;29.27;15.90;;;;;;;;;;4994091;28;20018;-84
2021/12/11 12:29:34;;;;;;;31.85;15.70;;;;;;;;;;5004206;28;20113;-85
2021/12/11 12:38:36;;;;;;;24.13;12.10;;;;;;;;;;4994303;28;20394;-84
2021/12/11 12:41:32;;;;;;;21.40;12.27;;;;;;;;;;5002971;28;20031;-85
2021/12/11 12:44:33;;;;;;;21.45;11.88;;;;;;;;;;4983803;28;20084;-84
2021/12/11 12:47:35;;;;;;;22.25;11.85;;;;;;;;;;4995295;28;20581;-84
2021/12/11 12:50:35;;;;;;;21.27;10.98;;;;;;;;;;4970289;28;20498;-85
2021/12/11 12:53:39;;;;;;;17.50;8.70;;;;;;;;;;5010168;28;20033;-84
2021/12/11 12:59:37;;;;;;;13.53;6.93;;;;;;;;;;5002157;28;20524;-83
2021/12/11 13:06:06;;;;;;;14.23;6.80;;;;;;;;;;4981331;28;20031;-86
2021/12/11 13:09:12;;;;;;;12.95;5.80;;;;;;;;;;4978928;28;20035;-87
2021/12/11 13:12:08;;;;;;;13.75;5.57;;;;;;;;;;4971379;28;20107;-85
2021/12/11 13:18:08;;;;;;;8.73;3.80;;;;;;;;;;4931739;29;20123;-86
2021/12/11 13:21:15;;;;;;;8.13;3.38;;;;;;;;;;4933754;29;20886;-85
2021/12/11 13:23:53;;;;;;;;;;;;;;;;;;;;;
2021/12/11 13:27:10;;;;;;;11.43;2.90;;;;;;;;;;4953027;29;20430;-85
2021/12/11 13:29:42;;;;;;;9.75;3.22;;;;;;;;;;5006533;28;20023;-83
2021/12/11 13:32:35;;;;;;;;;;;;;;;;;;;;;
2021/12/11 13:35:14;;;;;;;9.98;3.00;;;;;;;;;;4972937;28;20035;-85
2021/12/11 13:37:42;;;;;;;10.75;2.78;;;;;;;;;;4990755;28;20034;-85
2021/12/11 13:40:14;;;;;;;13.23;3.00;;;;;;;;;;4973427;28;20095;-83
2021/12/11 13:42:44;;;;;;;11.40;3.45;;;;;;;;;;4970151;28;20102;-87
2021/12/11 13:45:15;;;;;;;12.30;4.03;;;;;;;;;;4971393;28;20035;-85
2021/12/11 13:47:45;;;;;;;10.80;4.30;;;;;;;;;;4973311;28;20027;-84
2021/12/11 13:50:18;;;;;;;11.82;3.80;;;;;;;;;;4976081;28;20089;-84
2021/12/11 13:52:44;;;;;;;7.80;3.20;;;;;;;;;;4973411;28;20018;-86
2021/12/11 13:55:39;;;;;;;10.25;3.33;;;;;;;;;;4973576;28;20106;-86
2021/12/11 13:58:16;;;;;;;10.55;3.10;;;;;;;;;;4976534;28;20030;-88
2021/12/11 14:00:56;;;;;;;8.95;3.60;;;;;;;;;;4972052;28;20089;-83
2021/12/11 14:07:21;;;;;;;11.02;3.35;;;;;;;;;;4974774;28;20266;-85
2021/12/11 14:09:52;;;;;;;9.18;3.60;;;;;;;;;;5123100;22;20045;-86
2021/12/11 14:12:41;;;;;;;14.50;4.32;;;;;;;;;;5030551;28;20037;-86
2021/12/11 14:15:14;;;;;;;13.60;4.13;;;;;;;;;;5016599;28;20041;-85
2021/12/11 14:17:49;;;;;;;17.67;4.72;;;;;;;;;;5026354;28;20095;-85
2021/12/11 14:20:22;;;;;;;13.13;4.28;;;;;;;;;;5028516;28;20104;-84
2021/12/11 14:22:50;;;;;;;11.00;4.40;;;;;;;;;;5040266;28;20041;-86
2021/12/11 14:25:21;;;;;;;13.50;4.18;;;;;;;;;;5060311;28;20489;-83
2021/12/11 14:27:53;;;;;;;12.27;4.45;;;;;;;;;;5028792;28;20071;-86
2021/12/11 14:30:21;;;;;;;11.13;4.40;;;;;;;;;;5028530;28;20392;-85
2021/12/11 14:32:52;;;;;;;14.82;4.10;;;;;;;;;;5027102;28;20061;-86
2021/12/11 14:35:25;;;;;;;15.93;4.30;;;;;;;;;;5030594;28;20117;-86
2021/12/11 14:37:52;;;;;;;15.40;4.25;;;;;;;;;;5007006;28;20044;-86
2021/12/11 14:40:24;;;;;;;16.00;4.55;;;;;;;;;;5030256;28;20068;-86
2021/12/11 14:46:22;;;;;;;13.55;5.15;;;;;;;;;;5030518;28;20044;-86
2021/12/11 14:48:54;;;;;;;13.65;4.93;;;;;;;;;;5030649;28;20064;-84
2021/12/11 14:51:53;;;;;;;13.75;5.07;;;;;;;;;;5029761;28;20033;-85
2021/12/11 14:54:36;;;;;;;;;;;;;;;;;;;;;
2021/12/11 14:57:40;;;;;;;;;;;;;;;;;;;;;
2021/12/11 15:00:34;;;;;;;;;;;;;;;;;;4915035;29;20083;-82
2021/12/11 15:03:00;;;;;;;13.23;4.00;;;;;;;;;;4906664;29;19915;-85
2021/12/11 15:05:40;;;;;;;;;;;;;;;;;;;;;
2021/12/11 15:29:12;;;;;;;;;;;;;;;;;;;;;
2021/12/11 15:32:01;;;;;;;13.85;6.45;;;;;;;;;;5013103;28;20034;-85
2021/12/11 15:34:33;;;;;;;16.02;5.22;;;;;;;;;;5007718;28;20034;-86
2021/12/11 15:37:30;;;;;;;14.60;4.30;;;;;;;;;;4996777;28;20033;-83
2021/12/11 15:40:31;;;;;;;11.73;4.03;;;;;;;;;;4993241;28;20076;-85
2021/12/11 15:43:03;;;;;;;9.30;3.38;;;;;;;;;;5007974;28;20045;-85
2021/12/11 15:45:33;;;;;;;10.15;3.38;;;;;;;;;;5006407;28;20026;-84
2021/12/11 15:57:34;;;;;;;15.02;4.20;;;;;;;;;;4880944;29;20128;-85
2021/12/11 16:00:35;;;;;;;8.30;3.95;;;;;;;;;;4940451;28;20078;-85
2021/12/11 16:03:19;;;;;;;;;;;;;;;;;;;;;
2021/12/11 16:06:11;;;;;;;11.95;4.57;;;;;;;;;;4930790;29;20047;-84
2021/12/11 16:08:37;;;;;;;13.55;5.05;;;;;;;;;;4931389;29;20039;-85
2021/12/11 16:14:39;;;;;;;11.30;4.95;;;;;;;;;;4953361;28;20149;-85
2021/12/11 16:17:08;;;;;;;11.52;5.05;;;;;;;;;;4951220;28;20035;-86
2021/12/11 16:20:11;;;;;;;9.80;4.63;;;;;;;;;;4951057;28;20027;-84
2021/12/11 16:22:44;;;;;;;9.30;4.43;;;;;;;;;;4912149;29;20584;-85